Time;durP1;ratioP1;P1;durP2;ratioP2;P2;SDS_P1;SDS_P2;PMS_P1;PMS_P2;Temp;Humidity;BMP_temperature;BMP_pressure;BME280_temperature;BME280_humidity;BME280_pressure;Samples;Min_cycle;Max_cycle;Signal;HPM_P1;HPM_P2
2022/01/07 00:00:47;;;;;;;;;;;;;;;;;;2100119;28;1607;-76
2022/01/07 00:01:50;;;;;;;;;;;;;;;;;;2106250;28;1361;-76
2022/01/07 00:02:53;;;;;;;;;;;;;;;;;;2108466;28;1327;-75
2022/01/07 00:03:57;;;;;;;;;;;;;;;;;;2105421;28;1238;-75
2022/01/07 00:05:01;;;;;;;;;;;;;;;;;;2103206;28;1232;-75
2022/01/07 00:06:03;;;;;;;;;;;;;;;;;;2101832;28;1658;-75
2022/01/07 00:07:04;;;;;;;;;;;;;;;;;;2103162;28;1552;-76
2022/01/07 00:08:07;;;;;;;;;;;;;;;;;;2102374;28;1302;-76
2022/01/07 00:09:11;;;;;;;;;;;;;;;;;;2101273;28;1695;-76
2022/01/07 00:10:15;;;;;;;;;;;;;;;;;;2102064;28;1509;-76
2022/01/07 00:11:20;;;;;;;;;;;;;;;;;;2102476;28;1461;-76
2022/01/07 00:12:28;;;;;;;;;;;;;;;;;;2102438;28;1627;-77
2022/01/07 00:13:32;;;;;;;;;;;;;;;;;;2101861;28;1386;-76
2022/01/07 00:14:33;;;;;;;;;;;;;;;;;;2104220;28;1207;-76
2022/01/07 00:15:36;;;;;;;;;;;;;;;;;;2103447;28;1744;-75
2022/01/07 00:16:37;;;;;;;;;;;;;;;;;;2102486;28;1827;-75
2022/01/07 00:17:43;;;;;;;;;;;;;;;;;;2103801;28;1968;-76
2022/01/07 00:18:44;;;;;;;;;;;;;;;;;;2101696;28;1658;-76
2022/01/07 00:19:46;;;;;;;;;;;;;;;;;;2103047;28;1313;-76
2022/01/07 00:20:49;;;;;;;;;;;;;;;;;;2106660;28;1356;-75
2022/01/07 00:21:55;;;;;;;;;;;;;;;;;;2105366;28;1882;-76
2022/01/07 00:23:04;;;;;;;;;;;;;;;;;;2106380;28;1374;-76
2022/01/07 00:24:05;;;;;;;;;;;;;;;;;;2098993;28;1708;-76
2022/01/07 00:25:08;;;;;;;;;;;;;;;;;;2104130;28;1362;-76
2022/01/07 00:26:09;;;;;;;;;;;;;;;;;;2101599;28;1373;-76
2022/01/07 00:27:10;;;;;;;;;;;;;;;;;;2102319;28;1568;-75
2022/01/07 00:28:11;;;;;;;;;;;;;;;;;;2103079;28;1425;-76
2022/01/07 00:29:13;;;;;;;;;;;;;;;;;;2103335;28;1407;-76
2022/01/07 00:30:21;;;;;;;;;;;;;;;;;;2103277;28;1640;-75
2022/01/07 00:31:21;;;;;;;;;;;;;;;;;;2102963;28;1306;-76
2022/01/07 00:32:23;;;;;;;;;;;;;;;;;;2103137;28;1357;-76
2022/01/07 00:33:24;;;;;;;;;;;;;;;;;;2102399;28;1591;-76
2022/01/07 00:34:25;;;;;;;;;;;;;;;;;;2103666;28;1350;-77
2022/01/07 00:35:27;;;;;;;;;;;;;;;;;;2103282;28;1274;-76
2022/01/07 00:36:30;;;;;;;;;;;;;;;;;;2102382;28;1611;-76
2022/01/07 00:37:31;;;;;;;;;;;;;;;;;;2103000;28;1922;-76
2022/01/07 00:38:35;;;;;;;;;;;;;;;;;;2102684;28;1421;-75
2022/01/07 00:39:36;;;;;;;;;;;;;;;;;;2102782;28;1596;-76
2022/01/07 00:40:38;;;;;;;;;;;;;;;;;;2103071;28;1449;-76
2022/01/07 00:41:38;;;;;;;;;;;;;;;;;;2104552;28;1206;-76
2022/01/07 00:42:40;;;;;;;;;;;;;;;;;;2102810;28;1333;-75
2022/01/07 00:43:42;;;;;;;;;;;;;;;;;;2103155;28;1361;-76
2022/01/07 00:44:43;;;;;;;;;;;;;;;;;;2103889;28;1321;-76
2022/01/07 00:45:45;;;;;;;;;;;;;;;;;;2105160;28;1290;-76
2022/01/07 00:46:46;;;;;;;;;;;;;;;;;;2106172;28;1464;-76
2022/01/07 00:47:48;;;;;;;;;;;;;;;;;;2103156;28;1349;-76
2022/01/07 00:48:50;;;;;;;;;;;;;;;;;;2101669;28;1794;-76
2022/01/07 00:49:50;;;;;;;;;;;;;;;;;;2104594;28;1373;-76
2022/01/07 00:50:52;;;;;;;;;;;;;;;;;;2104864;28;1254;-76
2022/01/07 00:51:54;;;;;;;;;;;;;;;;;;2107379;28;1116;-76
2022/01/07 00:52:56;;;;;;;;;;;;;;;;;;2099725;28;1373;-76
2022/01/07 00:53:57;;;;;;;;;;;;;;;;;;2099611;28;1734;-76
2022/01/07 00:54:58;;;;;;;;;;;;;;;;;;2099558;28;1449;-76
2022/01/07 00:56:00;;;;;;;;;;;;;;;;;;2101726;28;1365;-76
2022/01/07 00:57:01;;;;;;;;;;;;;;;;;;2101948;28;1604;-75
2022/01/07 00:58:02;;;;;;;;;;;;;;;;;;2102821;28;1918;-76
2022/01/07 00:59:03;;;;;;;;;;;;;;;;;;2103183;28;1449;-75
2022/01/07 01:00:06;;;;;;;;;;;;;;;;;;2102581;28;1417;-77
2022/01/07 01:01:09;;;;;;;;;;;;;;;;;;2103305;28;1448;-76
2022/01/07 01:02:11;;;;;;;;;;;;;;;;;;2100943;28;1445;-76
2022/01/07 01:03:13;;;;;;;;;;;;;;;;;;2102516;28;1682;-76
2022/01/07 01:04:18;;;;;;;;;;;;;;;;;;2103441;28;1215;-76
2022/01/07 01:05:20;;;;;;;;;;;;;;;;;;2112752;28;1326;-75
2022/01/07 01:06:20;;;;;;;;;;;;;;;;;;2114404;28;823;-76
2022/01/07 01:07:23;;;;;;;;;;;;;;;;;;2106559;28;922;-76
2022/01/07 01:08:25;;;;;;;;;;;;;;;;;;2106569;28;992;-76
2022/01/07 01:09:25;;;;;;;;;;;;;;;;;;2106279;28;859;-76
2022/01/07 01:10:27;;;;;;;;;;;;;;;;;;2106361;28;1025;-76
2022/01/07 01:11:28;;;;;;;;;;;;;;;;;;2106887;28;1017;-76
2022/01/07 01:12:29;;;;;;;;;;;;;;;;;;2105919;28;1841;-75
2022/01/07 01:13:31;;;;;;;;;;;;;;;;;;2106836;28;885;-75
2022/01/07 01:14:33;;;;;;;;;;;;;;;;;;2106879;28;971;-75
2022/01/07 01:15:35;;;;;;;;;;;;;;;;;;2106769;28;946;-75
2022/01/07 01:16:36;;;;;;;;;;;;;;;;;;2107287;28;1266;-75
2022/01/07 01:17:37;;;;;;;;;;;;;;;;;;2107316;28;1910;-76
2022/01/07 01:18:38;;;;;;;;;;;;;;;;;;2106321;28;2021;-76
2022/01/07 01:19:39;;;;;;;;;;;;;;;;;;2107134;28;926;-76
2022/01/07 01:20:40;;;;;;;;;;;;;;;;;;2106671;28;1353;-75
2022/01/07 01:21:42;;;;;;;;;;;;;;;;;;2106282;28;2032;-75
2022/01/07 01:22:45;;;;;;;;;;;;;;;;;;2106665;28;968;-76
2022/01/07 01:23:46;;;;;;;;;;;;;;;;;;2106651;28;946;-75
2022/01/07 01:24:47;;;;;;;;;;;;;;;;;;2107060;28;1366;-76
2022/01/07 01:25:48;;;;;;;;;;;;;;;;;;2106563;28;1361;-75
2022/01/07 01:26:49;;;;;;;;;;;;;;;;;;2106700;28;981;-76
2022/01/07 01:27:50;;;;;;;;;;;;;;;;;;2107317;28;1056;-76
2022/01/07 01:28:51;;;;;;;;;;;;;;;;;;2107386;28;814;-75
2022/01/07 01:29:52;;;;;;;;;;;;;;;;;;2107190;28;973;-75
2022/01/07 01:30:53;;;;;;;;;;;;;;;;;;2106149;28;1892;-75
2022/01/07 01:31:54;;;;;;;;;;;;;;;;;;2106513;28;1348;-76
2022/01/07 01:32:56;;;;;;;;;;;;;;;;;;2098294;28;1330;-75
2022/01/07 01:33:56;;;;;;;;;;;;;;;;;;2106573;28;945;-75
2022/01/07 01:34:58;;;;;;;;;;;;;;;;;;2107305;28;760;-76
2022/01/07 01:36:00;;;;;;;;;;;;;;;;;;2106234;28;1960;-75
2022/01/07 01:37:00;;;;;;;;;;;;;;;;;;2099025;28;938;-75
2022/01/07 01:38:03;;;;;;;;;;;;;;;;;;2098815;28;1909;-76
2022/01/07 01:39:05;;;;;;;;;;;;;;;;;;2099219;28;1911;-76
2022/01/07 01:40:08;;;;;;;;;;;;;;;;;;2107224;28;918;-75
2022/01/07 01:41:09;;;;;;;;;;;;;;;;;;2107315;28;988;-75
2022/01/07 01:42:10;;;;;;;;;;;;;;;;;;2105962;28;1840;-75
2022/01/07 01:43:11;;;;;;;;;;;;;;;;;;2107305;28;950;-76
2022/01/07 01:44:13;;;;;;;;;;;;;;;;;;2107380;28;923;-76
2022/01/07 01:45:15;;;;;;;;;;;;;;;;;;2106111;28;1821;-75
2022/01/07 01:46:17;;;;;;;;;;;;;;;;;;2107381;28;830;-76
2022/01/07 01:47:18;;;;;;;;;;;;;;;;;;2107246;28;1049;-76
2022/01/07 01:48:20;;;;;;;;;;;;;;;;;;2106127;28;1880;-76
2022/01/07 01:49:21;;;;;;;;;;;;;;;;;;2107215;28;993;-76
2022/01/07 01:50:23;;;;;;;;;;;;;;;;;;2107263;28;1136;-75
2022/01/07 01:51:23;;;;;;;;;;;;;;;;;;2106616;28;1892;-75
2022/01/07 01:52:25;;;;;;;;;;;;;;;;;;2107227;28;1061;-75
2022/01/07 01:53:30;;;;;;;;;;;;;;;;;;2107176;28;1012;-76
2022/01/07 01:54:30;;;;;;;;;;;;;;;;;;2106062;28;1861;-76
2022/01/07 01:55:32;;;;;;;;;;;;;;;;;;2107256;28;961;-76
2022/01/07 01:56:32;;;;;;;;;;;;;;;;;;2107470;28;834;-75
2022/01/07 01:57:34;;;;;;;;;;;;;;;;;;2107903;28;1892;-76
2022/01/07 01:58:35;;;;;;;;;;;;;;;;;;2108920;28;1902;-75
2022/01/07 01:59:36;;;;;;;;;;;;;;;;;;2108796;28;962;-76
2022/01/07 02:00:39;;;;;;;;;;;;;;;;;;2107631;28;1833;-76
2022/01/07 02:01:40;;;;;;;;;;;;;;;;;;2108865;28;1077;-76
2022/01/07 02:02:42;;;;;;;;;;;;;;;;;;2108925;28;981;-76
2022/01/07 02:03:44;;;;;;;;;;;;;;;;;;2107964;28;2069;-76
2022/01/07 02:04:44;;;;;;;;;;;;;;;;;;2108792;28;850;-75
2022/01/07 02:05:46;;;;;;;;;;;;;;;;;;2108848;28;937;-75
2022/01/07 02:06:46;;;;;;;;;;;;;;;;;;2108866;28;995;-76
2022/01/07 02:07:48;;;;;;;;;;;;;;;;;;2108007;28;815;-76
2022/01/07 02:08:52;;;;;;;;;;;;;;;;;;2108231;28;867;-75
2022/01/07 02:09:52;;;;;;;;;;;;;;;;;;2108620;28;1252;-75
2022/01/07 02:10:54;;;;;;;;;;;;;;;;;;2108812;28;1089;-76
2022/01/07 02:11:55;;;;;;;;;;;;;;;;;;2108171;28;1841;-75
2022/01/07 02:12:58;;;;;;;;;;;;;;;;;;2108210;28;829;-76
2022/01/07 02:13:58;;;;;;;;;;;;;;;;;;2108759;28;1045;-76
2022/01/07 02:15:00;;;;;;;;;;;;;;;;;;2107975;28;1762;-75
2022/01/07 02:16:00;;;;;;;;;;;;;;;;;;2108564;28;1375;-76
2022/01/07 02:17:06;;;;;;;;;;;;;;;;;;2108689;28;1538;-75
2022/01/07 02:18:06;;;;;;;;;;;;;;;;;;2107416;28;1910;-75
2022/01/07 02:19:08;;;;;;;;;;;;;;;;;;2108741;28;957;-76
2022/01/07 02:20:10;;;;;;;;;;;;;;;;;;2108580;28;1020;-76
2022/01/07 02:21:13;;;;;;;;;;;;;;;;;;2107946;28;1908;-75
2022/01/07 02:22:14;;;;;;;;;;;;;;;;;;2108611;28;1157;-75
2022/01/07 02:23:16;;;;;;;;;;;;;;;;;;2108809;28;930;-75
2022/01/07 02:24:16;;;;;;;;;;;;;;;;;;2107395;28;1838;-76
2022/01/07 02:25:20;;;;;;;;;;;;;;;;;;2108598;28;1239;-75
2022/01/07 02:26:21;;;;;;;;;;;;;;;;;;2108588;28;1047;-76
2022/01/07 02:27:22;;;;;;;;;;;;;;;;;;2107476;28;1990;-75
2022/01/07 02:28:24;;;;;;;;;;;;;;;;;;2108558;28;1114;-75
2022/01/07 02:29:26;;;;;;;;;;;;;;;;;;2108695;28;1124;-75
2022/01/07 02:30:27;;;;;;;;;;;;;;;;;;2107271;28;1971;-75
2022/01/07 02:31:29;;;;;;;;;;;;;;;;;;2108648;28;1028;-76
2022/01/07 02:32:29;;;;;;;;;;;;;;;;;;2108523;28;938;-76
2022/01/07 02:33:31;;;;;;;;;;;;;;;;;;2107462;28;2007;-75
2022/01/07 02:34:31;;;;;;;;;;;;;;;;;;2108509;28;1087;-75
2022/01/07 02:35:35;;;;;;;;;;;;;;;;;;2108601;28;871;-76
2022/01/07 02:36:35;;;;;;;;;;;;;;;;;;2106415;28;1909;-75
2022/01/07 02:37:37;;;;;;;;;;;;;;;;;;2108080;28;942;-75
2022/01/07 02:38:38;;;;;;;;;;;;;;;;;;2107699;28;1914;-75
2022/01/07 02:39:40;;;;;;;;;;;;;;;;;;2093561;28;2056;-76
2022/01/07 02:40:41;;;;;;;;;;;;;;;;;;2099386;28;830;-76
2022/01/07 02:41:42;;;;;;;;;;;;;;;;;;2100116;28;1127;-76
2022/01/07 02:42:43;;;;;;;;;;;;;;;;;;2106208;28;1849;-76
2022/01/07 02:43:45;;;;;;;;;;;;;;;;;;2108470;28;874;-75
2022/01/07 02:44:46;;;;;;;;;;;;;;;;;;2108432;28;949;-75
2022/01/07 02:45:47;;;;;;;;;;;;;;;;;;2106600;28;2044;-76
2022/01/07 02:46:48;;;;;;;;;;;;;;;;;;2107780;28;791;-75
2022/01/07 02:47:53;;;;;;;;;;;;;;;;;;2108559;28;1042;-75
2022/01/07 02:48:53;;;;;;;;;;;;;;;;;;2107272;28;1860;-75
2022/01/07 02:49:55;;;;;;;;;;;;;;;;;;2108478;28;1096;-75
2022/01/07 02:50:58;;;;;;;;;;;;;;;;;;2108432;28;1011;-75
2022/01/07 02:51:58;;;;;;;;;;;;;;;;;;2108581;28;905;-76
2022/01/07 02:53:00;;;;;;;;;;;;;;;;;;2108224;28;1069;-75
2022/01/07 02:54:01;;;;;;;;;;;;;;;;;;2107730;28;1837;-75
2022/01/07 02:55:03;;;;;;;;;;;;;;;;;;2108310;28;1032;-76
2022/01/07 02:56:04;;;;;;;;;;;;;;;;;;2108335;28;1012;-75
2022/01/07 02:57:05;;;;;;;;;;;;;;;;;;2107442;28;1758;-75
2022/01/07 02:58:07;;;;;;;;;;;;;;;;;;2108326;28;918;-76
2022/01/07 02:59:08;;;;;;;;;;;;;;;;;;2107636;28;1913;-76
2022/01/07 03:00:10;;;;;;;;;;;;;;;;;;2107003;28;2077;-76
2022/01/07 03:01:11;;;;;;;;;;;;;;;;;;2108447;28;938;-76
2022/01/07 03:02:13;;;;;;;;;;;;;;;;;;2108359;28;926;-75
2022/01/07 03:03:13;;;;;;;;;;;;;;;;;;2107543;28;2041;-76
2022/01/07 03:04:15;;;;;;;;;;;;;;;;;;2108322;28;870;-76
2022/01/07 03:05:15;;;;;;;;;;;;;;;;;;2108312;28;1061;-76
2022/01/07 03:06:20;;;;;;;;;;;;;;;;;;2107226;28;2055;-76
2022/01/07 03:07:21;;;;;;;;;;;;;;;;;;2108335;28;973;-76
2022/01/07 03:08:23;;;;;;;;;;;;;;;;;;2107323;28;899;-76
2022/01/07 03:09:23;;;;;;;;;;;;;;;;;;2107064;28;1814;-76
2022/01/07 03:10:26;;;;;;;;;;;;;;;;;;2108166;28;913;-76
2022/01/07 03:11:27;;;;;;;;;;;;;;;;;;2108321;28;815;-75
2022/01/07 03:12:28;;;;;;;;;;;;;;;;;;2107033;28;1813;-76
2022/01/07 03:13:29;;;;;;;;;;;;;;;;;;2108294;28;980;-75
2022/01/07 03:14:30;;;;;;;;;;;;;;;;;;2108248;28;1075;-75
2022/01/07 03:15:34;;;;;;;;;;;;;;;;;;2108319;28;907;-76
2022/01/07 03:16:35;;;;;;;;;;;;;;;;;;2108212;28;1016;-75
2022/01/07 03:17:37;;;;;;;;;;;;;;;;;;2108255;28;919;-76
2022/01/07 03:18:38;;;;;;;;;;;;;;;;;;2106940;28;1906;-76
2022/01/07 03:19:39;;;;;;;;;;;;;;;;;;2107676;28;1394;-76
2022/01/07 03:20:41;;;;;;;;;;;;;;;;;;2107721;28;903;-76
2022/01/07 03:21:43;;;;;;;;;;;;;;;;;;2107201;28;1904;-76
2022/01/07 03:22:45;;;;;;;;;;;;;;;;;;2107708;28;1693;-76
2022/01/07 03:23:47;;;;;;;;;;;;;;;;;;2107637;28;952;-76
2022/01/07 03:24:47;;;;;;;;;;;;;;;;;;2106978;28;1973;-76
2022/01/07 03:25:49;;;;;;;;;;;;;;;;;;2108196;28;891;-76
2022/01/07 03:26:49;;;;;;;;;;;;;;;;;;2108150;28;1069;-76
2022/01/07 03:27:51;;;;;;;;;;;;;;;;;;2107011;28;1876;-76
2022/01/07 03:28:51;;;;;;;;;;;;;;;;;;2108188;28;808;-76
2022/01/07 03:29:53;;;;;;;;;;;;;;;;;;2108241;28;961;-76
2022/01/07 03:30:54;;;;;;;;;;;;;;;;;;2106973;28;2114;-76
2022/01/07 03:31:55;;;;;;;;;;;;;;;;;;2108131;28;920;-76
2022/01/07 03:32:56;;;;;;;;;;;;;;;;;;2107531;28;1829;-75
2022/01/07 03:33:57;;;;;;;;;;;;;;;;;;2108065;28;1069;-76
2022/01/07 03:34:58;;;;;;;;;;;;;;;;;;2108072;28;1037;-76
2022/01/07 03:35:59;;;;;;;;;;;;;;;;;;2106732;28;1866;-75
2022/01/07 03:37:01;;;;;;;;;;;;;;;;;;2107380;28;970;-76
2022/01/07 03:38:03;;;;;;;;;;;;;;;;;;2108052;28;905;-76
2022/01/07 03:39:04;;;;;;;;;;;;;;;;;;2106687;28;1964;-76
2022/01/07 03:40:06;;;;;;;;;;;;;;;;;;2108048;28;894;-76
2022/01/07 03:41:06;;;;;;;;;;;;;;;;;;2108111;28;912;-76
2022/01/07 03:42:08;;;;;;;;;;;;;;;;;;2107018;28;1845;-76
2022/01/07 03:43:09;;;;;;;;;;;;;;;;;;2108015;28;1040;-75
2022/01/07 03:44:11;;;;;;;;;;;;;;;;;;2107471;28;1219;-76
2022/01/07 03:45:12;;;;;;;;;;;;;;;;;;2106787;28;1922;-76
2022/01/07 03:46:14;;;;;;;;;;;;;;;;;;2108038;28;936;-76
2022/01/07 03:47:14;;;;;;;;;;;;;;;;;;2107941;28;898;-76
2022/01/07 03:48:19;;;;;;;;;;;;;;;;;;2107342;28;1845;-76
2022/01/07 03:49:19;;;;;;;;;;;;;;;;;;2107979;28;1081;-76
2022/01/07 03:50:22;;;;;;;;;;;;;;;;;;2108003;28;902;-76
2022/01/07 03:51:22;;;;;;;;;;;;;;;;;;2107109;28;1822;-75
2022/01/07 03:52:25;;;;;;;;;;;;;;;;;;2107964;28;783;-76
2022/01/07 03:53:27;;;;;;;;;;;;;;;;;;2107028;28;1128;-76
2022/01/07 03:54:27;;;;;;;;;;;;;;;;;;2102811;28;1913;-76
2022/01/07 03:55:30;;;;;;;;;;;;;;;;;;2099273;28;1320;-76
2022/01/07 03:56:31;;;;;;;;;;;;;;;;;;2099575;28;954;-75
2022/01/07 03:57:32;;;;;;;;;;;;;;;;;;2103754;28;1829;-76
2022/01/07 03:58:34;;;;;;;;;;;;;;;;;;2107922;28;930;-76
2022/01/07 03:59:34;;;;;;;;;;;;;;;;;;2107882;28;877;-76
2022/01/07 04:00:38;;;;;;;;;;;;;;;;;;2106782;28;1746;-76
2022/01/07 04:01:38;;;;;;;;;;;;;;;;;;2107913;28;970;-76
2022/01/07 04:02:40;;;;;;;;;;;;;;;;;;2107642;28;1034;-76
2022/01/07 04:03:42;;;;;;;;;;;;;;;;;;2106705;28;2001;-76
2022/01/07 04:04:42;;;;;;;;;;;;;;;;;;2107022;28;1618;-76
2022/01/07 04:05:44;;;;;;;;;;;;;;;;;;2107166;28;1012;-76
2022/01/07 04:06:44;;;;;;;;;;;;;;;;;;2106523;28;1842;-76
2022/01/07 04:07:47;;;;;;;;;;;;;;;;;;2107168;28;1326;-76
2022/01/07 04:08:49;;;;;;;;;;;;;;;;;;2115560;28;956;-76
2022/01/07 04:09:50;;;;;;;;;;;;;;;;;;2106764;28;1829;-76
2022/01/07 04:10:51;;;;;;;;;;;;;;;;;;2107863;28;1042;-76
2022/01/07 04:11:52;;;;;;;;;;;;;;;;;;2107753;28;822;-76
2022/01/07 04:12:53;;;;;;;;;;;;;;;;;;2106604;28;1877;-76
2022/01/07 04:13:54;;;;;;;;;;;;;;;;;;2107781;28;946;-76
2022/01/07 04:15:07;;;;;;;;;;;;;;;;;;2107671;28;921;-76
2022/01/07 04:16:09;;;;;;;;;;;;;;;;;;2107156;28;914;-76
2022/01/07 04:17:09;;;;;;;;;;;;;;;;;;2107235;28;862;-76
2022/01/07 04:18:11;;;;;;;;;;;;;;;;;;2107789;28;1020;-76
2022/01/07 04:19:12;;;;;;;;;;;;;;;;;;2107574;28;1906;-75
2022/01/07 04:20:14;;;;;;;;;;;;;;;;;;2107613;28;830;-76
2022/01/07 04:21:15;;;;;;;;;;;;;;;;;;2106984;28;1861;-76
2022/01/07 04:22:16;;;;;;;;;;;;;;;;;;2107719;28;1047;-76
2022/01/07 04:23:19;;;;;;;;;;;;;;;;;;2106819;28;1191;-76
2022/01/07 04:24:20;;;;;;;;;;;;;;;;;;2107160;28;1032;-76
2022/01/07 04:25:22;;;;;;;;;;;;;;;;;;2107762;28;807;-76
2022/01/07 04:26:22;;;;;;;;;;;;;;;;;;2107874;28;1257;-76
2022/01/07 04:27:24;;;;;;;;;;;;;;;;;;2106392;28;1877;-76
2022/01/07 04:28:25;;;;;;;;;;;;;;;;;;2107712;28;950;-76
2022/01/07 04:29:26;;;;;;;;;;;;;;;;;;2107607;28;898;-76
2022/01/07 04:30:30;;;;;;;;;;;;;;;;;;2106861;28;1943;-76
2022/01/07 04:31:30;;;;;;;;;;;;;;;;;;2107617;28;870;-76
2022/01/07 04:32:32;;;;;;;;;;;;;;;;;;2107649;28;961;-76
2022/01/07 04:33:34;;;;;;;;;;;;;;;;;;2107573;28;1023;-76
2022/01/07 04:34:34;;;;;;;;;;;;;;;;;;2107695;28;835;-76
2022/01/07 04:35:36;;;;;;;;;;;;;;;;;;2106985;28;1073;-76
2022/01/07 04:36:38;;;;;;;;;;;;;;;;;;2106339;28;1870;-76
2022/01/07 04:37:39;;;;;;;;;;;;;;;;;;2107687;28;874;-75
2022/01/07 04:38:42;;;;;;;;;;;;;;;;;;2107583;28;930;-76
2022/01/07 04:39:43;;;;;;;;;;;;;;;;;;2107446;28;1906;-76
2022/01/07 04:40:44;;;;;;;;;;;;;;;;;;2107734;28;878;-76
2022/01/07 04:41:45;;;;;;;;;;;;;;;;;;2107498;28;924;-76
2022/01/07 04:42:47;;;;;;;;;;;;;;;;;;2107647;28;799;-76
2022/01/07 04:43:49;;;;;;;;;;;;;;;;;;2107562;28;1150;-76
2022/01/07 04:44:49;;;;;;;;;;;;;;;;;;2107757;28;929;-76
2022/01/07 04:45:52;;;;;;;;;;;;;;;;;;2106333;28;1841;-76
2022/01/07 04:46:52;;;;;;;;;;;;;;;;;;2107606;28;987;-76
2022/01/07 04:47:54;;;;;;;;;;;;;;;;;;2107523;28;898;-75
2022/01/07 04:48:54;;;;;;;;;;;;;;;;;;2106787;28;1380;-76
2022/01/07 04:49:57;;;;;;;;;;;;;;;;;;2098601;28;996;-76
2022/01/07 04:50:58;;;;;;;;;;;;;;;;;;2106958;28;1132;-76
2022/01/07 04:51:59;;;;;;;;;;;;;;;;;;2107280;28;938;-76
2022/01/07 04:53:01;;;;;;;;;;;;;;;;;;2106875;28;1264;-76
2022/01/07 04:54:02;;;;;;;;;;;;;;;;;;2105669;28;1901;-76
2022/01/07 04:55:06;;;;;;;;;;;;;;;;;;2106637;28;1136;-76
2022/01/07 04:56:08;;;;;;;;;;;;;;;;;;2106762;28;921;-76
2022/01/07 04:57:08;;;;;;;;;;;;;;;;;;2107538;28;930;-76
2022/01/07 04:58:12;;;;;;;;;;;;;;;;;;2107335;28;1047;-76
2022/01/07 04:59:12;;;;;;;;;;;;;;;;;;2107332;28;1906;-76
2022/01/07 05:00:16;;;;;;;;;;;;;;;;;;2106755;28;1921;-76
2022/01/07 05:01:18;;;;;;;;;;;;;;;;;;2106766;28;1015;-77
2022/01/07 05:02:20;;;;;;;;;;;;;;;;;;2106798;28;847;-76
2022/01/07 05:03:22;;;;;;;;;;;;;;;;;;2106318;28;1866;-76
2022/01/07 05:04:22;;;;;;;;;;;;;;;;;;2107491;28;855;-77
2022/01/07 05:05:24;;;;;;;;;;;;;;;;;;2107478;28;879;-76
2022/01/07 05:06:44;;;;;;;;;;;;;;;;;;2107475;28;971;-76
2022/01/07 05:07:45;;;;;;;;;;;;;;;;;;2107518;28;961;-76
2022/01/07 05:08:46;;;;;;;;;;;;;;;;;;2107349;28;1012;-76
2022/01/07 05:09:49;;;;;;;;;;;;;;;;;;2112730;28;1849;-76
2022/01/07 05:10:49;;;;;;;;;;;;;;;;;;2114888;28;925;-73
2022/01/07 05:11:51;;;;;;;;;;;;;;;;;;2107442;28;953;-75
2022/01/07 05:12:52;;;;;;;;;;;;;;;;;;2106107;28;1754;-75
2022/01/07 05:13:53;;;;;;;;;;;;;;;;;;2107397;28;842;-73
2022/01/07 05:14:54;;;;;;;;;;;;;;;;;;2107170;28;1909;-73
2022/01/07 05:15:55;;;;;;;;;;;;;;;;;;2099543;28;893;-72
2022/01/07 05:16:56;;;;;;;;;;;;;;;;;;2098867;28;946;-73
2022/01/07 05:17:58;;;;;;;;;;;;;;;;;;2098820;28;1833;-74
2022/01/07 05:18:58;;;;;;;;;;;;;;;;;;2106933;28;879;-73
2022/01/07 05:20:00;;;;;;;;;;;;;;;;;;2107300;28;1910;-74
2022/01/07 05:21:00;;;;;;;;;;;;;;;;;;2107286;28;807;-74
2022/01/07 05:22:02;;;;;;;;;;;;;;;;;;2106648;28;1225;-72
2022/01/07 05:23:04;;;;;;;;;;;;;;;;;;2106690;28;1070;-72
2022/01/07 05:24:05;;;;;;;;;;;;;;;;;;2106459;28;1931;-74
2022/01/07 05:25:08;;;;;;;;;;;;;;;;;;2107305;28;953;-73
2022/01/07 05:26:09;;;;;;;;;;;;;;;;;;2107344;28;879;-72
2022/01/07 05:27:11;;;;;;;;;;;;;;;;;;2106115;28;2042;-72
2022/01/07 05:28:11;;;;;;;;;;;;;;;;;;2107287;28;1073;-75
2022/01/07 05:29:13;;;;;;;;;;;;;;;;;;2107337;28;1212;-73
2022/01/07 05:30:13;;;;;;;;;;;;;;;;;;2106100;28;1995;-73
2022/01/07 05:31:15;;;;;;;;;;;;;;;;;;2107334;28;1065;-75
2022/01/07 05:32:15;;;;;;;;;;;;;;;;;;2108857;28;788;-72
2022/01/07 05:33:17;;;;;;;;;;;;;;;;;;2107947;28;1904;-74
2022/01/07 05:34:18;;;;;;;;;;;;;;;;;;2108962;28;1165;-73
2022/01/07 05:35:19;;;;;;;;;;;;;;;;;;2109038;28;922;-74
2022/01/07 05:36:20;;;;;;;;;;;;;;;;;;2107781;28;1925;-74
2022/01/07 05:37:22;;;;;;;;;;;;;;;;;;2109053;28;811;-72
2022/01/07 05:38:22;;;;;;;;;;;;;;;;;;2108784;28;989;-72
2022/01/07 05:39:24;;;;;;;;;;;;;;;;;;2107760;28;1920;-73
2022/01/07 05:40:25;;;;;;;;;;;;;;;;;;2108805;28;799;-74
2022/01/07 05:41:27;;;;;;;;;;;;;;;;;;2108815;28;985;-72
2022/01/07 05:42:27;;;;;;;;;;;;;;;;;;2107597;28;1809;-74
2022/01/07 05:43:30;;;;;;;;;;;;;;;;;;2108901;28;834;-74
2022/01/07 05:44:31;;;;;;;;;;;;;;;;;;2108213;28;1032;-73
2022/01/07 05:45:32;;;;;;;;;;;;;;;;;;2107864;28;1822;-74
2022/01/07 05:46:33;;;;;;;;;;;;;;;;;;2108897;28;882;-72
2022/01/07 05:47:34;;;;;;;;;;;;;;;;;;2108192;28;890;-72
2022/01/07 05:48:35;;;;;;;;;;;;;;;;;;2112525;28;1830;-73
2022/01/07 05:49:36;;;;;;;;;;;;;;;;;;2108948;28;1069;-73
2022/01/07 05:50:37;;;;;;;;;;;;;;;;;;2108830;28;954;-72
2022/01/07 05:51:39;;;;;;;;;;;;;;;;;;2107811;28;1837;-73
2022/01/07 05:52:39;;;;;;;;;;;;;;;;;;2108896;28;803;-72
2022/01/07 05:53:41;;;;;;;;;;;;;;;;;;2108918;28;967;-75
2022/01/07 05:54:42;;;;;;;;;;;;;;;;;;2107622;28;1864;-72
2022/01/07 05:55:45;;;;;;;;;;;;;;;;;;2108877;28;902;-72
2022/01/07 05:56:45;;;;;;;;;;;;;;;;;;2108610;28;873;-71
2022/01/07 05:57:47;;;;;;;;;;;;;;;;;;2106927;28;1819;-71
2022/01/07 05:58:47;;;;;;;;;;;;;;;;;;2108152;28;1064;-71
2022/01/07 05:59:49;;;;;;;;;;;;;;;;;;2108684;28;1922;-71
2022/01/07 06:00:49;;;;;;;;;;;;;;;;;;2107982;28;1845;-72
2022/01/07 06:01:51;;;;;;;;;;;;;;;;;;2108145;28;893;-71
2022/01/07 06:02:51;;;;;;;;;;;;;;;;;;2107967;28;922;-71
2022/01/07 06:03:53;;;;;;;;;;;;;;;;;;2107521;28;2001;-72
2022/01/07 06:04:53;;;;;;;;;;;;;;;;;;2108985;28;756;-71
2022/01/07 06:05:55;;;;;;;;;;;;;;;;;;2107846;28;1904;-72
2022/01/07 06:06:55;;;;;;;;;;;;;;;;;;2107943;28;937;-71
2022/01/07 06:07:57;;;;;;;;;;;;;;;;;;2108920;28;819;-71
2022/01/07 06:08:57;;;;;;;;;;;;;;;;;;2107914;28;1876;-71
2022/01/07 06:09:59;;;;;;;;;;;;;;;;;;2108617;28;1056;-71
2022/01/07 06:11:03;;;;;;;;;;;;;;;;;;2108800;28;850;-71
2022/01/07 06:12:05;;;;;;;;;;;;;;;;;;2107535;28;2037;-72
2022/01/07 06:13:05;;;;;;;;;;;;;;;;;;2108578;28;1064;-72
2022/01/07 06:14:07;;;;;;;;;;;;;;;;;;2108702;28;929;-72
2022/01/07 06:15:08;;;;;;;;;;;;;;;;;;2107428;28;1857;-72
2022/01/07 06:16:10;;;;;;;;;;;;;;;;;;2107958;28;942;-71
2022/01/07 06:17:11;;;;;;;;;;;;;;;;;;2107936;28;883;-71
2022/01/07 06:18:15;;;;;;;;;;;;;;;;;;2107542;28;1857;-71
2022/01/07 06:19:15;;;;;;;;;;;;;;;;;;2108668;28;791;-72
2022/01/07 06:20:18;;;;;;;;;;;;;;;;;;2107865;28;1905;-72
2022/01/07 06:21:19;;;;;;;;;;;;;;;;;;2107538;28;1853;-71
2022/01/07 06:22:21;;;;;;;;;;;;;;;;;;2108545;28;961;-72
2022/01/07 06:23:23;;;;;;;;;;;;;;;;;;2108724;28;951;-72
2022/01/07 06:24:23;;;;;;;;;;;;;;;;;;2107492;28;1828;-72
2022/01/07 06:25:25;;;;;;;;;;;;;;;;;;2108470;28;878;-72
2022/01/07 06:26:28;;;;;;;;;;;;;;;;;;2108508;28;919;-71
2022/01/07 06:27:28;;;;;;;;;;;;;;;;;;2107483;28;1913;-72
2022/01/07 06:28:30;;;;;;;;;;;;;;;;;;2107818;28;914;-71
2022/01/07 06:29:32;;;;;;;;;;;;;;;;;;2108106;28;984;-72
2022/01/07 06:30:33;;;;;;;;;;;;;;;;;;2107318;28;2034;-71
2022/01/07 06:31:34;;;;;;;;;;;;;;;;;;2108587;28;1021;-72
2022/01/07 06:32:36;;;;;;;;;;;;;;;;;;2108604;28;807;-71
2022/01/07 06:33:36;;;;;;;;;;;;;;;;;;2107339;28;1869;-72
2022/01/07 06:34:38;;;;;;;;;;;;;;;;;;2108403;28;1065;-71
2022/01/07 06:35:38;;;;;;;;;;;;;;;;;;2108508;28;887;-72
2022/01/07 06:36:40;;;;;;;;;;;;;;;;;;2108505;28;926;-71
2022/01/07 06:37:41;;;;;;;;;;;;;;;;;;2108497;28;1035;-72
2022/01/07 06:38:43;;;;;;;;;;;;;;;;;;2108337;28;787;-71
2022/01/07 06:39:44;;;;;;;;;;;;;;;;;;2107211;28;1902;-72
2022/01/07 06:40:46;;;;;;;;;;;;;;;;;;2107886;28;1357;-72
2022/01/07 06:41:50;;;;;;;;;;;;;;;;;;2107836;28;883;-71
2022/01/07 06:42:52;;;;;;;;;;;;;;;;;;2106767;28;1920;-71
2022/01/07 06:43:53;;;;;;;;;;;;;;;;;;2107745;28;934;-71
2022/01/07 06:44:54;;;;;;;;;;;;;;;;;;2108232;28;783;-71
2022/01/07 06:45:55;;;;;;;;;;;;;;;;;;2107775;28;933;-72
2022/01/07 06:46:56;;;;;;;;;;;;;;;;;;2108361;28;986;-71
2022/01/07 06:47:58;;;;;;;;;;;;;;;;;;2107775;28;1912;-72
2022/01/07 06:48:58;;;;;;;;;;;;;;;;;;2099168;28;912;-71
2022/01/07 06:50:00;;;;;;;;;;;;;;;;;;2099324;28;819;-71
2022/01/07 06:51:00;;;;;;;;;;;;;;;;;;2099974;28;2016;-72
2022/01/07 06:52:02;;;;;;;;;;;;;;;;;;2100041;28;1212;-71
2022/01/07 06:53:02;;;;;;;;;;;;;;;;;;2099882;28;1069;-70
2022/01/07 06:54:04;;;;;;;;;;;;;;;;;;2100126;28;1849;-72
2022/01/07 06:55:06;;;;;;;;;;;;;;;;;;2108088;28;1230;-71
2022/01/07 06:56:07;;;;;;;;;;;;;;;;;;2108250;28;882;-73
2022/01/07 06:57:10;;;;;;;;;;;;;;;;;;2108297;28;961;-70
2022/01/07 06:58:10;;;;;;;;;;;;;;;;;;2108220;28;1133;-71
2022/01/07 06:59:12;;;;;;;;;;;;;;;;;;2108218;28;1005;-71
2022/01/07 07:00:13;;;;;;;;;;;;;;;;;;2107135;28;1973;-71
2022/01/07 07:01:15;;;;;;;;;;;;;;;;;;2108266;28;1140;-71
2022/01/07 07:02:15;;;;;;;;;;;;;;;;;;2108281;28;1015;-71
2022/01/07 07:03:17;;;;;;;;;;;;;;;;;;2107474;28;1766;-73
2022/01/07 07:04:18;;;;;;;;;;;;;;;;;;2108301;28;946;-72
2022/01/07 07:05:20;;;;;;;;;;;;;;;;;;2108236;28;969;-71
2022/01/07 07:06:21;;;;;;;;;;;;;;;;;;2107052;28;1908;-72
2022/01/07 07:07:23;;;;;;;;;;;;;;;;;;2108246;28;799;-71
2022/01/07 07:08:24;;;;;;;;;;;;;;;;;;2108361;28;965;-72
2022/01/07 07:09:26;;;;;;;;;;;;;;;;;;2107059;28;1912;-71
2022/01/07 07:10:27;;;;;;;;;;;;;;;;;;2108297;28;873;-72
2022/01/07 07:11:28;;;;;;;;;;;;;;;;;;2108111;28;807;-71